sensor_id;sensor_type;location;lat;lon;timestamp;P1;durP1;ratioP1;P2;durP2;ratioP2
34557;SDS011;24708;48.888;8.736;2023-02-24T06:31:16;86.65;;;25.00;;
34557;SDS011;24708;48.888;8.736;2023-02-24T06:33:44;96.35;;;26.15;;
34557;SDS011;24708;48.888;8.736;2023-02-24T06:36:12;91.32;;;24.63;;
34557;SDS011;24708;48.888;8.736;2023-02-24T06:38:40;103.70;;;28.02;;
34557;SDS011;24708;48.888;8.736;2023-02-24T06:41:07;79.95;;;23.45;;
34557;SDS011;24708;48.888;8.736;2023-02-24T06:43:41;88.38;;;26.00;;
34557;SDS011;24708;48.888;8.736;2023-02-24T06:46:11;108.10;;;26.13;;
34557;SDS011;24708;48.888;8.736;2023-02-24T06:48:39;100.55;;;25.90;;
34557;SDS011;24708;48.888;8.736;2023-02-24T06:51:08;114.28;;;27.67;;
34557;SDS011;24708;48.888;8.736;2023-02-24T06:53:39;109.75;;;26.33;;
34557;SDS011;24708;48.888;8.736;2023-02-24T06:58:41;105.07;;;25.67;;
34557;SDS011;24708;48.888;8.736;2023-02-24T07:01:14;94.85;;;25.65;;
34557;SDS011;24708;48.888;8.736;2023-02-24T07:03:44;90.68;;;23.92;;
34557;SDS011;24708;48.888;8.736;2023-02-24T07:06:31;96.00;;;26.13;;
34557;SDS011;24708;48.888;8.736;2023-02-24T07:09:05;98.45;;;26.45;;
34557;SDS011;24708;48.888;8.736;2023-02-24T07:11:34;86.30;;;23.40;;
34557;SDS011;24708;48.888;8.736;2023-02-24T07:14:08;88.60;;;25.20;;
34557;SDS011;24708;48.888;8.736;2023-02-24T07:16:36;78.88;;;24.70;;
34557;SDS011;24708;48.888;8.736;2023-02-24T07:19:09;78.80;;;24.42;;
34557;SDS011;24708;48.888;8.736;2023-02-24T07:21:43;101.90;;;26.92;;
34557;SDS011;24708;48.888;8.736;2023-02-24T07:24:17;96.70;;;26.33;;
34557;SDS011;24708;48.888;8.736;2023-02-24T07:26:54;104.90;;;29.20;;
34557;SDS011;24708;48.888;8.736;2023-02-24T07:29:27;105.35;;;28.77;;
34557;SDS011;24708;48.888;8.736;2023-02-24T07:31:57;92.43;;;25.73;;
34557;SDS011;24708;48.888;8.736;2023-02-24T07:34:29;91.65;;;27.45;;
34557;SDS011;24708;48.888;8.736;2023-02-24T07:36:59;90.95;;;25.95;;
34557;SDS011;24708;48.888;8.736;2023-02-24T07:39:33;113.72;;;29.30;;
34557;SDS011;24708;48.888;8.736;2023-02-24T07:42:03;101.10;;;27.35;;
34557;SDS011;24708;48.888;8.736;2023-02-24T07:44:31;100.63;;;27.40;;
34557;SDS011;24708;48.888;8.736;2023-02-24T07:46:58;95.93;;;26.98;;
34557;SDS011;24708;48.888;8.736;2023-02-24T07:49:26;99.70;;;27.55;;
34557;SDS011;24708;48.888;8.736;2023-02-24T07:51:55;85.18;;;22.83;;
34557;SDS011;24708;48.888;8.736;2023-02-24T07:54:24;77.25;;;20.95;;
34557;SDS011;24708;48.888;8.736;2023-02-24T07:56:56;77.82;;;21.95;;
34557;SDS011;24708;48.888;8.736;2023-02-24T07:59:32;76.47;;;23.52;;
34557;SDS011;24708;48.888;8.736;2023-02-24T08:02:00;74.07;;;22.77;;
34557;SDS011;24708;48.888;8.736;2023-02-24T08:04:31;62.30;;;21.70;;
34557;SDS011;24708;48.888;8.736;2023-02-24T08:06:59;76.32;;;21.30;;
34557;SDS011;24708;48.888;8.736;2023-02-24T08:09:30;62.35;;;19.38;;
34557;SDS011;24708;48.888;8.736;2023-02-24T08:12:12;68.28;;;19.40;;
34557;SDS011;24708;48.888;8.736;2023-02-24T08:14:48;73.05;;;20.15;;
34557;SDS011;24708;48.888;8.736;2023-02-24T08:17:22;60.10;;;17.23;;
34557;SDS011;24708;48.888;8.736;2023-02-24T08:19:53;67.40;;;20.27;;
34557;SDS011;24708;48.888;8.736;2023-02-24T08:22:43;76.60;;;21.15;;
34557;SDS011;24708;48.888;8.736;2023-02-24T08:25:18;76.20;;;22.05;;
34557;SDS011;24708;48.888;8.736;2023-02-24T08:27:49;62.50;;;19.77;;
34557;SDS011;24708;48.888;8.736;2023-02-24T08:30:35;66.85;;;17.95;;
34557;SDS011;24708;48.888;8.736;2023-02-24T08:33:07;62.47;;;19.70;;
34557;SDS011;24708;48.888;8.736;2023-02-24T08:35:36;64.38;;;18.80;;
34557;SDS011;24708;48.888;8.736;2023-02-24T08:38:14;65.75;;;19.95;;
34557;SDS011;24708;48.888;8.736;2023-02-24T08:40:47;65.47;;;19.63;;
34557;SDS011;24708;48.888;8.736;2023-02-24T08:43:21;76.38;;;21.27;;
34557;SDS011;24708;48.888;8.736;2023-02-24T08:45:58;75.10;;;21.05;;
34557;SDS011;24708;48.888;8.736;2023-02-24T08:48:48;63.47;;;19.75;;
34557;SDS011;24708;48.888;8.736;2023-02-24T08:54:08;65.40;;;19.65;;
34557;SDS011;24708;48.888;8.736;2023-02-24T08:56:44;66.00;;;21.10;;
34557;SDS011;24708;48.888;8.736;2023-02-24T08:59:22;69.75;;;20.42;;
34557;SDS011;24708;48.888;8.736;2023-02-24T09:02:07;72.35;;;20.25;;
34557;SDS011;24708;48.888;8.736;2023-02-24T09:04:45;78.18;;;21.70;;
34557;SDS011;24708;48.888;8.736;2023-02-24T09:07:18;73.15;;;20.75;;
34557;SDS011;24708;48.888;8.736;2023-02-24T09:10:02;73.88;;;20.30;;
34557;SDS011;24708;48.888;8.736;2023-02-24T09:12:31;58.47;;;20.05;;
34557;SDS011;24708;48.888;8.736;2023-02-24T09:14:59;72.88;;;22.00;;
34557;SDS011;24708;48.888;8.736;2023-02-24T09:17:30;59.40;;;20.23;;
34557;SDS011;24708;48.888;8.736;2023-02-24T09:20:17;67.32;;;20.60;;
34557;SDS011;24708;48.888;8.736;2023-02-24T09:23:04;68.55;;;22.63;;
34557;SDS011;24708;48.888;8.736;2023-02-24T09:25:34;67.32;;;22.00;;
34557;SDS011;24708;48.888;8.736;2023-02-24T09:28:16;60.40;;;18.40;;
34557;SDS011;24708;48.888;8.736;2023-02-24T09:30:49;63.63;;;21.13;;
34557;SDS011;24708;48.888;8.736;2023-02-24T09:35:57;68.28;;;19.05;;
34557;SDS011;24708;48.888;8.736;2023-02-24T09:38:36;66.20;;;21.15;;
34557;SDS011;24708;48.888;8.736;2023-02-24T09:41:46;70.88;;;21.85;;
34557;SDS011;24708;48.888;8.736;2023-02-24T09:44:24;79.43;;;20.98;;
34557;SDS011;24708;48.888;8.736;2023-02-24T09:53:08;90.32;;;23.42;;
34557;SDS011;24708;48.888;8.736;2023-02-24T09:55:47;89.40;;;25.65;;
34557;SDS011;24708;48.888;8.736;2023-02-24T09:58:34;106.75;;;27.15;;
34557;SDS011;24708;48.888;8.736;2023-02-24T10:01:19;99.43;;;27.40;;
34557;SDS011;24708;48.888;8.736;2023-02-24T10:07:11;107.95;;;24.63;;
34557;SDS011;24708;48.888;8.736;2023-02-24T10:09:45;97.20;;;27.02;;
34557;SDS011;24708;48.888;8.736;2023-02-24T10:12:46;105.05;;;26.23;;
34557;SDS011;24708;48.888;8.736;2023-02-24T10:15:22;117.68;;;27.95;;
34557;SDS011;24708;48.888;8.736;2023-02-24T10:18:59;106.20;;;27.00;;
34557;SDS011;24708;48.888;8.736;2023-02-24T10:21:29;99.97;;;27.25;;
34557;SDS011;24708;48.888;8.736;2023-02-24T10:24:40;104.25;;;26.50;;
34557;SDS011;24708;48.888;8.736;2023-02-24T10:29:56;96.95;;;25.48;;
34557;SDS011;24708;48.888;8.736;2023-02-24T10:35:13;87.78;;;23.27;;
34557;SDS011;24708;48.888;8.736;2023-02-24T10:37:42;97.63;;;25.50;;
34557;SDS011;24708;48.888;8.736;2023-02-24T10:40:10;99.55;;;26.60;;
34557;SDS011;24708;48.888;8.736;2023-02-24T10:42:50;82.40;;;25.58;;
34557;SDS011;24708;48.888;8.736;2023-02-24T10:45:29;84.60;;;26.77;;
34557;SDS011;24708;48.888;8.736;2023-02-24T10:48:05;88.90;;;25.80;;
34557;SDS011;24708;48.888;8.736;2023-02-24T10:50:42;104.57;;;25.52;;
34557;SDS011;24708;48.888;8.736;2023-02-24T10:53:25;83.03;;;24.42;;
34557;SDS011;24708;48.888;8.736;2023-02-24T10:56:04;91.82;;;24.42;;
34557;SDS011;24708;48.888;8.736;2023-02-24T10:59:03;97.07;;;25.88;;
34557;SDS011;24708;48.888;8.736;2023-02-24T11:01:54;82.07;;;22.50;;
34557;SDS011;24708;48.888;8.736;2023-02-24T11:04:33;93.70;;;25.90;;
34557;SDS011;24708;48.888;8.736;2023-02-24T11:07:30;78.38;;;23.17;;
34557;SDS011;24708;48.888;8.736;2023-02-24T11:10:12;73.28;;;23.48;;
34557;SDS011;24708;48.888;8.736;2023-02-24T11:12:43;93.35;;;26.25;;
34557;SDS011;24708;48.888;8.736;2023-02-24T11:18:30;96.88;;;23.55;;
34557;SDS011;24708;48.888;8.736;2023-02-24T11:23:27;64.88;;;21.30;;
34557;SDS011;24708;48.888;8.736;2023-02-24T11:26:02;76.82;;;22.25;;
34557;SDS011;24708;48.888;8.736;2023-02-24T11:31:27;96.35;;;24.10;;
34557;SDS011;24708;48.888;8.736;2023-02-24T11:34:28;65.47;;;21.50;;
34557;SDS011;24708;48.888;8.736;2023-02-24T11:37:24;81.78;;;21.65;;
34557;SDS011;24708;48.888;8.736;2023-02-24T11:39:58;61.28;;;21.38;;
34557;SDS011;24708;48.888;8.736;2023-02-24T11:42:41;67.70;;;21.48;;
34557;SDS011;24708;48.888;8.736;2023-02-24T11:51:00;69.78;;;20.33;;
34557;SDS011;24708;48.888;8.736;2023-02-24T11:56:41;51.65;;;18.60;;
34557;SDS011;24708;48.888;8.736;2023-02-24T12:02:15;201.10;;;33.75;;
34557;SDS011;24708;48.888;8.736;2023-02-24T12:05:14;65.55;;;21.67;;
34557;SDS011;24708;48.888;8.736;2023-02-24T12:07:48;68.93;;;19.95;;
34557;SDS011;24708;48.888;8.736;2023-02-24T12:10:23;59.03;;;18.73;;
34557;SDS011;24708;48.888;8.736;2023-02-24T12:15:31;55.40;;;18.48;;
34557;SDS011;24708;48.888;8.736;2023-02-24T12:21:22;64.35;;;20.98;;
34557;SDS011;24708;48.888;8.736;2023-02-24T12:23:59;51.92;;;17.42;;
34557;SDS011;24708;48.888;8.736;2023-02-24T12:26:45;63.58;;;20.55;;
34557;SDS011;24708;48.888;8.736;2023-02-24T12:33:04;53.40;;;17.10;;
34557;SDS011;24708;48.888;8.736;2023-02-24T12:41:16;52.05;;;17.67;;
34557;SDS011;24708;48.888;8.736;2023-02-24T12:46:43;50.55;;;13.63;;
34557;SDS011;24708;48.888;8.736;2023-02-24T12:49:59;30.40;;;12.98;;
34557;SDS011;24708;48.888;8.736;2023-02-24T12:52:51;47.30;;;14.68;;
34557;SDS011;24708;48.888;8.736;2023-02-24T12:55:26;35.22;;;12.18;;
34557;SDS011;24708;48.888;8.736;2023-02-24T12:58:17;50.20;;;14.25;;
34557;SDS011;24708;48.888;8.736;2023-02-24T13:03:26;31.13;;;12.70;;
34557;SDS011;24708;48.888;8.736;2023-02-24T13:06:08;36.20;;;11.65;;
34557;SDS011;24708;48.888;8.736;2023-02-24T13:08:57;37.60;;;11.48;;
34557;SDS011;24708;48.888;8.736;2023-02-24T13:11:51;33.47;;;11.50;;
34557;SDS011;24708;48.888;8.736;2023-02-24T13:14:32;37.60;;;14.32;;
34557;SDS011;24708;48.888;8.736;2023-02-24T13:17:06;46.35;;;13.48;;
34557;SDS011;24708;48.888;8.736;2023-02-24T13:19:46;46.08;;;14.57;;
34557;SDS011;24708;48.888;8.736;2023-02-24T13:27:20;41.75;;;14.18;;
34557;SDS011;24708;48.888;8.736;2023-02-24T13:32:44;30.38;;;13.00;;
34557;SDS011;24708;48.888;8.736;2023-02-24T13:37:41;36.45;;;13.80;;
34557;SDS011;24708;48.888;8.736;2023-02-24T13:42:54;30.40;;;12.35;;
34557;SDS011;24708;48.888;8.736;2023-02-24T13:45:23;36.63;;;13.75;;
34557;SDS011;24708;48.888;8.736;2023-02-24T13:56:43;25.55;;;11.00;;
34557;SDS011;24708;48.888;8.736;2023-02-24T14:02:05;27.42;;;11.55;;
34557;SDS011;24708;48.888;8.736;2023-02-24T14:04:44;24.65;;;11.43;;
34557;SDS011;24708;48.888;8.736;2023-02-24T14:07:19;34.88;;;12.80;;
34557;SDS011;24708;48.888;8.736;2023-02-24T14:09:55;37.28;;;13.27;;
34557;SDS011;24708;48.888;8.736;2023-02-24T14:12:27;35.72;;;13.32;;
34557;SDS011;24708;48.888;8.736;2023-02-24T14:15:01;34.53;;;13.13;;
34557;SDS011;24708;48.888;8.736;2023-02-24T14:17:31;33.38;;;13.68;;
34557;SDS011;24708;48.888;8.736;2023-02-24T14:20:17;37.58;;;14.35;;
34557;SDS011;24708;48.888;8.736;2023-02-24T14:22:47;37.72;;;13.40;;
34557;SDS011;24708;48.888;8.736;2023-02-24T14:25:21;28.05;;;13.85;;
34557;SDS011;24708;48.888;8.736;2023-02-24T14:27:50;38.50;;;14.40;;
34557;SDS011;24708;48.888;8.736;2023-02-24T14:30:35;33.50;;;13.88;;
34557;SDS011;24708;48.888;8.736;2023-02-24T14:33:05;38.20;;;15.90;;
34557;SDS011;24708;48.888;8.736;2023-02-24T14:38:03;44.08;;;15.85;;
34557;SDS011;24708;48.888;8.736;2023-02-24T14:40:31;38.80;;;16.48;;
34557;SDS011;24708;48.888;8.736;2023-02-24T14:42:59;51.20;;;16.08;;
34557;SDS011;24708;48.888;8.736;2023-02-24T14:45:27;41.42;;;17.08;;
34557;SDS011;24708;48.888;8.736;2023-02-24T14:47:54;39.72;;;16.20;;
34557;SDS011;24708;48.888;8.736;2023-02-24T14:50:29;49.03;;;17.27;;
34557;SDS011;24708;48.888;8.736;2023-02-24T14:53:06;40.95;;;16.50;;
34557;SDS011;24708;48.888;8.736;2023-02-24T14:55:40;49.67;;;17.42;;
34557;SDS011;24708;48.888;8.736;2023-02-24T14:58:18;44.60;;;17.17;;
34557;SDS011;24708;48.888;8.736;2023-02-24T15:00:52;41.40;;;16.33;;
34557;SDS011;24708;48.888;8.736;2023-02-24T15:03:38;39.88;;;15.45;;
34557;SDS011;24708;48.888;8.736;2023-02-24T15:06:14;50.47;;;17.77;;
34557;SDS011;24708;48.888;8.736;2023-02-24T15:08:58;45.05;;;16.20;;
34557;SDS011;24708;48.888;8.736;2023-02-24T15:11:29;44.78;;;16.17;;
34557;SDS011;24708;48.888;8.736;2023-02-24T15:14:04;45.85;;;17.55;;
34557;SDS011;24708;48.888;8.736;2023-02-24T15:16:42;46.50;;;17.38;;
34557;SDS011;24708;48.888;8.736;2023-02-24T15:19:20;42.75;;;16.75;;
34557;SDS011;24708;48.888;8.736;2023-02-24T15:21:54;44.08;;;16.63;;
34557;SDS011;24708;48.888;8.736;2023-02-24T15:24:29;44.65;;;17.13;;
34557;SDS011;24708;48.888;8.736;2023-02-24T15:29:28;41.28;;;17.33;;
34557;SDS011;24708;48.888;8.736;2023-02-24T15:31:57;44.88;;;17.98;;
34557;SDS011;24708;48.888;8.736;2023-02-24T15:34:27;44.60;;;17.17;;
34557;SDS011;24708;48.888;8.736;2023-02-24T15:36:58;44.15;;;18.27;;
34557;SDS011;24708;48.888;8.736;2023-02-24T15:39:30;41.53;;;16.63;;
34557;SDS011;24708;48.888;8.736;2023-02-24T15:44:52;45.40;;;15.75;;
34557;SDS011;24708;48.888;8.736;2023-02-24T15:47:44;41.75;;;15.13;;
34557;SDS011;24708;48.888;8.736;2023-02-24T15:50:11;51.60;;;16.55;;
34557;SDS011;24708;48.888;8.736;2023-02-24T15:52:39;37.70;;;15.15;;
34557;SDS011;24708;48.888;8.736;2023-02-24T15:55:09;45.05;;;16.67;;
34557;SDS011;24708;48.888;8.736;2023-02-24T15:57:40;37.13;;;14.50;;
34557;SDS011;24708;48.888;8.736;2023-02-24T16:00:08;42.30;;;16.13;;
34557;SDS011;24708;48.888;8.736;2023-02-24T16:02:39;38.25;;;14.73;;
34557;SDS011;24708;48.888;8.736;2023-02-24T16:05:08;36.92;;;15.10;;
34557;SDS011;24708;48.888;8.736;2023-02-24T16:07:39;40.72;;;14.57;;
34557;SDS011;24708;48.888;8.736;2023-02-24T16:10:18;39.72;;;14.57;;
34557;SDS011;24708;48.888;8.736;2023-02-24T16:12:52;36.65;;;14.55;;
34557;SDS011;24708;48.888;8.736;2023-02-24T16:15:25;49.75;;;16.52;;
34557;SDS011;24708;48.888;8.736;2023-02-24T16:17:59;40.13;;;13.60;;
34557;SDS011;24708;48.888;8.736;2023-02-24T16:20:30;40.85;;;13.30;;
34557;SDS011;24708;48.888;8.736;2023-02-24T16:22:58;38.58;;;14.77;;
34557;SDS011;24708;48.888;8.736;2023-02-24T16:25:40;37.22;;;14.50;;
34557;SDS011;24708;48.888;8.736;2023-02-24T16:28:12;43.50;;;14.65;;
34557;SDS011;24708;48.888;8.736;2023-02-24T16:30:41;41.37;;;15.33;;
34557;SDS011;24708;48.888;8.736;2023-02-24T16:33:10;42.53;;;14.48;;
34557;SDS011;24708;48.888;8.736;2023-02-24T16:35:39;39.85;;;14.63;;
34557;SDS011;24708;48.888;8.736;2023-02-24T16:38:12;43.38;;;14.50;;
34557;SDS011;24708;48.888;8.736;2023-02-24T16:40:42;34.47;;;14.45;;
34557;SDS011;24708;48.888;8.736;2023-02-24T16:43:11;44.42;;;13.88;;
34557;SDS011;24708;48.888;8.736;2023-02-24T16:45:41;44.08;;;16.90;;
34557;SDS011;24708;48.888;8.736;2023-02-24T16:48:17;50.53;;;16.20;;
34557;SDS011;24708;48.888;8.736;2023-02-24T16:50:47;41.92;;;15.13;;
34557;SDS011;24708;48.888;8.736;2023-02-24T16:53:19;45.85;;;15.40;;
34557;SDS011;24708;48.888;8.736;2023-02-24T16:55:48;40.38;;;15.98;;
34557;SDS011;24708;48.888;8.736;2023-02-24T16:58:16;37.50;;;15.55;;
